Time;durP1;ratioP1;P1;durP2;ratioP2;P2;SDS_P1;SDS_P2;PMS_P1;PMS_P2;Temp;Humidity;BMP_temperature;BMP_pressure;BME280_temperature;BME280_humidity;BME280_pressure;Samples;Min_cycle;Max_cycle;Signal;HPM_P1;HPM_P2
2022/11/15 00:02:16;;;;;;;;;;;;;;;;;;6248315;22;19973;-88
2022/11/15 00:04:42;;;;;;;;;;;;;;;;;;6248177;22;19961;-88
2022/11/15 00:07:08;;;;;;;;;;;;;;;;;;6247859;22;19911;-88
2022/11/15 00:09:34;;;;;;;;;;;;;;;;;;6248366;22;19915;-88
2022/11/15 00:12:00;;;;;;;;;;;;;;;;;;6248225;22;19918;-88
2022/11/15 00:14:25;;;;;;;;;;;;;;;;;;6250278;22;19918;-88
2022/11/15 00:16:51;;;;;;;;;;;;;;;;;;6225045;22;19918;-88
2022/11/15 00:19:17;;;;;;;;;;;;;;;;;;6250256;22;19915;-88
2022/11/15 00:21:43;;;;;;;;;;;;;;;;;;6224708;22;19911;-88
2022/11/15 00:24:09;;;;;;;;;;;;;;;;;;6250419;22;19915;-88
2022/11/15 00:26:35;;;;;;;;;;;;;;;;;;6224605;22;20293;-88
2022/11/15 00:29:01;;;;;;;;;;;;;;;;;;6250042;22;19918;-88
2022/11/15 00:31:27;;;;;;;;;;;;;;;;;;6224509;22;19911;-88
2022/11/15 00:33:53;;;;;;;;;;;;;;;;;;6250073;22;19953;-88
2022/11/15 00:36:19;;;;;;;;;;;;;;;;;;6249470;22;19938;-88
2022/11/15 00:38:44;;;;;;;;;;;;;;;;;;6224542;22;19915;-88
2022/11/15 00:41:10;;;;;;;;;;;;;;;;;;6249921;22;19918;-88
2022/11/15 00:43:36;;;;;;;;;;;;;;;;;;6249716;22;19911;-88
2022/11/15 00:46:02;;;;;;;;;;;;;;;;;;6249692;22;19911;-88
2022/11/15 00:48:28;;;;;;;;;;;;;;;;;;6249618;22;19918;-88
2022/11/15 00:50:54;;;;;;;;;;;;;;;;;;6249806;22;19911;-89
2022/11/15 00:53:20;;;;;;;;;;;;;;;;;;6224427;22;19911;-89
2022/11/15 00:55:46;;;;;;;;;;;;;;;;;;6249768;22;19911;-89
2022/11/15 00:58:12;;;;;;;;;;;;;;;;;;6249771;22;20269;-89
2022/11/15 01:00:38;;;;;;;;;;;;;;;;;;6223922;22;19915;-89
2022/11/15 01:03:03;;;;;;;;;;;;;;;;;;6224104;22;19918;-89
2022/11/15 01:05:29;;;;;;;;;;;;;;;;;;6223931;22;19915;-89
2022/11/15 01:07:55;;;;;;;;;;;;;;;;;;6223950;22;19973;-88
2022/11/15 01:10:21;;;;;;;;;;;;;;;;;;6249675;22;20317;-88
2022/11/15 01:12:47;;;;;;;;;;;;;;;;;;6249472;22;20224;-89
2022/11/15 01:15:13;;;;;;;;;;;;;;;;;;6249563;22;19915;-88
2022/11/15 01:17:39;;;;;;;;;;;;;;;;;;6249378;22;19990;-89
2022/11/15 01:20:05;;;;;;;;;;;;;;;;;;6223817;22;19921;-88
2022/11/15 01:22:31;;;;;;;;;;;;;;;;;;6249551;22;19990;-89
2022/11/15 01:24:57;;;;;;;;;;;;;;;;;;6223593;22;19911;-89
2022/11/15 01:27:22;;;;;;;;;;;;;;;;;;6249271;22;19934;-88
2022/11/15 01:29:48;;;;;;;;;;;;;;;;;;6249288;22;20243;-88
2022/11/15 01:32:14;;;;;;;;;;;;;;;;;;6249567;22;19911;-89
2022/11/15 01:34:40;;;;;;;;;;;;;;;;;;6223795;22;19950;-89
2022/11/15 01:37:06;;;;;;;;;;;;;;;;;;6249200;22;19938;-88
2022/11/15 01:39:32;;;;;;;;;;;;;;;;;;6224343;22;20382;-88
2022/11/15 01:41:58;;;;;;;;;;;;;;;;;;6223923;22;19911;-88
2022/11/15 01:44:24;;;;;;;;;;;;;;;;;;6249022;22;20320;-88
2022/11/15 01:46:50;;;;;;;;;;;;;;;;;;6249083;22;19986;-89
2022/11/15 01:49:15;;;;;;;;;;;;;;;;;;6223445;22;19986;-89
2022/11/15 01:51:41;;;;;;;;;;;;;;;;;;6249468;22;19915;-88
2022/11/15 01:54:07;;;;;;;;;;;;;;;;;;6249288;22;19911;-88
2022/11/15 01:56:33;;;;;;;;;;;;;;;;;;6249056;22;19918;-88
2022/11/15 01:58:59;;;;;;;;;;;;;;;;;;6223720;22;19919;-89
2022/11/15 02:01:25;;;;;;;;;;;;;;;;;;6248867;22;20278;-89
2022/11/15 02:03:51;;;;;;;;;;;;;;;;;;6249258;22;19918;-88
2022/11/15 02:06:17;;;;;;;;;;;;;;;;;;6249122;22;20266;-89
2022/11/15 02:08:43;;;;;;;;;;;;;;;;;;6223942;22;19944;-89
2022/11/15 02:11:09;;;;;;;;;;;;;;;;;;6249084;22;19922;-88
2022/11/15 02:13:35;;;;;;;;;;;;;;;;;;6248989;22;19917;-88
2022/11/15 02:16:01;;;;;;;;;;;;;;;;;;6223661;22;19911;-88
2022/11/15 02:18:26;;;;;;;;;;;;;;;;;;6223371;22;19918;-88
2022/11/15 02:20:52;;;;;;;;;;;;;;;;;;6248697;22;19919;-89
2022/11/15 02:23:18;;;;;;;;;;;;;;;;;;6223559;22;19915;-88
2022/11/15 02:25:44;;;;;;;;;;;;;;;;;;6248890;22;19911;-89
2022/11/15 02:28:10;;;;;;;;;;;;;;;;;;6223281;22;19911;-87
2022/11/15 02:30:36;;;;;;;;;;;;;;;;;;6223518;22;19911;-88
2022/11/15 02:33:02;;;;;;;;;;;;;;;;;;6248727;22;20389;-88
2022/11/15 02:35:28;;;;;;;;;;;;;;;;;;6248580;22;19968;-88
2022/11/15 02:37:53;;;;;;;;;;;;;;;;;;6248520;22;19911;-89
2022/11/15 02:40:19;;;;;;;;;;;;;;;;;;6223431;22;19915;-88
2022/11/15 02:45:30;;;;;;;;;;;;;;;;;;6248115;22;19911;-88
2022/11/15 02:47:56;;;;;;;;;;;;;;;;;;6248711;22;19921;-88
2022/11/15 02:50:22;;;;;;;;;;;;;;;;;;6248965;22;19950;-88
2022/11/15 02:52:48;;;;;;;;;;;;;;;;;;6248711;22;20353;-88
2022/11/15 02:55:14;;;;;;;;;;;;;;;;;;6248706;22;19912;-88
2022/11/15 02:57:40;;;;;;;;;;;;;;;;;;6223354;22;19937;-88
2022/11/15 03:00:06;;;;;;;;;;;;;;;;;;6222686;22;19915;-88
2022/11/15 03:02:32;;;;;;;;;;;;;;;;;;6248268;22;19919;-89
2022/11/15 03:04:57;;;;;;;;;;;;;;;;;;6248762;22;19911;-88
2022/11/15 03:07:23;;;;;;;;;;;;;;;;;;6248610;22;19911;-89
2022/11/15 03:09:49;;;;;;;;;;;;;;;;;;6248479;22;20333;-89
2022/11/15 03:12:15;;;;;;;;;;;;;;;;;;6248806;22;19912;-88
2022/11/15 03:14:41;;;;;;;;;;;;;;;;;;6248316;22;19911;-88
2022/11/15 03:17:07;;;;;;;;;;;;;;;;;;6248359;22;20325;-89
2022/11/15 03:19:33;;;;;;;;;;;;;;;;;;6222968;22;19911;-89
2022/11/15 03:21:59;;;;;;;;;;;;;;;;;;6248558;22;20256;-88
2022/11/15 03:24:25;;;;;;;;;;;;;;;;;;6222972;22;19918;-90
2022/11/15 03:26:51;;;;;;;;;;;;;;;;;;6223340;22;19911;-88
2022/11/15 03:29:16;;;;;;;;;;;;;;;;;;6248115;22;20202;-88
2022/11/15 03:31:50;;;;;;;;;;;;;;;;;;6248746;22;19911;-88
2022/11/15 03:34:15;;;;;;;;;;;;;;;;;;6223017;22;19918;-87
2022/11/15 03:36:41;;;;;;;;;;;;;;;;;;6248509;22;19911;-88
2022/11/15 03:39:07;;;;;;;;;;;;;;;;;;6248432;22;19934;-88
2022/11/15 03:41:33;;;;;;;;;;;;;;;;;;6248470;22;19982;-88
2022/11/15 03:43:59;;;;;;;;;;;;;;;;;;6248572;22;19919;-88
2022/11/15 03:46:25;;;;;;;;;;;;;;;;;;6223209;22;20347;-88
2022/11/15 03:48:51;;;;;;;;;;;;;;;;;;6250266;22;19911;-87
2022/11/15 03:51:17;;;;;;;;;;;;;;;;;;6225217;22;19958;-88
2022/11/15 03:53:43;;;;;;;;;;;;;;;;;;6225406;22;20317;-88
2022/11/15 03:56:08;;;;;;;;;;;;;;;;;;6250672;22;19966;-87
2022/11/15 03:58:34;;;;;;;;;;;;;;;;;;6225188;22;20034;-89
2022/11/15 04:01:00;;;;;;;;;;;;;;;;;;6250368;22;19915;-87
2022/11/15 04:03:26;;;;;;;;;;;;;;;;;;6250809;22;19911;-88
2022/11/15 04:05:52;;;;;;;;;;;;;;;;;;6250680;22;20284;-89
2022/11/15 04:08:18;;;;;;;;;;;;;;;;;;6250264;22;19991;-88
2022/11/15 04:10:44;;;;;;;;;;;;;;;;;;6250367;22;19947;-88
2022/11/15 04:13:10;;;;;;;;;;;;;;;;;;6250391;22;20277;-89
2022/11/15 04:15:35;;;;;;;;;;;;;;;;;;6250365;22;19982;-89
2022/11/15 04:18:01;;;;;;;;;;;;;;;;;;6250587;22;19917;-89
2022/11/15 04:24:11;;;;;;;;;;;;;;;;;;6250482;22;20292;-89
2022/11/15 04:26:10;;;;;;;;;;;;;;;;;;6250157;22;19911;-88
2022/11/15 04:29:33;;;;;;;;;;;;;;;;;;6224722;22;19911;-89
2022/11/15 04:31:25;;;;;;;;;;;;;;;;;;6250254;22;19911;-89
2022/11/15 04:33:51;;;;;;;;;;;;;;;;;;6225156;22;20002;-89
2022/11/15 04:39:02;;;;;;;;;;;;;;;;;;6250581;22;20317;-89
2022/11/15 04:41:28;;;;;;;;;;;;;;;;;;6250422;22;19917;-89
2022/11/15 04:43:54;;;;;;;;;;;;;;;;;;6250511;22;20256;-89
2022/11/15 04:46:20;;;;;;;;;;;;;;;;;;6249971;22;19981;-89
2022/11/15 04:48:46;;;;;;;;;;;;;;;;;;6250149;22;19915;-89
2022/11/15 04:51:12;;;;;;;;;;;;;;;;;;6224895;22;20195;-89
2022/11/15 04:53:38;;;;;;;;;;;;;;;;;;6249820;22;19911;-88
2022/11/15 04:56:04;;;;;;;;;;;;;;;;;;6249952;22;19985;-88
2022/11/15 04:58:30;;;;;;;;;;;;;;;;;;6224629;22;19934;-89
2022/11/15 05:00:56;;;;;;;;;;;;;;;;;;6244702;23;19954;-89
2022/11/15 05:06:06;;;;;;;;;;;;;;;;;;6244981;22;19940;-88
2022/11/15 05:08:32;;;;;;;;;;;;;;;;;;6219663;23;19947;-88
2022/11/15 05:10:58;;;;;;;;;;;;;;;;;;6220044;23;19919;-88
2022/11/15 05:13:24;;;;;;;;;;;;;;;;;;6219528;23;19915;-89
2022/11/15 05:15:50;;;;;;;;;;;;;;;;;;6194696;23;19912;-89
2022/11/15 05:18:16;;;;;;;;;;;;;;;;;;6219262;23;19911;-89
2022/11/15 05:20:41;;;;;;;;;;;;;;;;;;6194349;23;19938;-88
2022/11/15 05:23:10;;;;;;;;;;;;;;;;;;6246131;23;20354;-89
2022/11/15 05:25:37;;;;;;;;;;;;;;;;;;6219365;23;19911;-88
2022/11/15 05:28:03;;;;;;;;;;;;;;;;;;6218804;23;19912;-88
2022/11/15 05:30:29;;;;;;;;;;;;;;;;;;6219534;23;19958;-89
2022/11/15 05:32:55;;;;;;;;;;;;;;;;;;6219510;23;19911;-88
2022/11/15 05:35:20;;;;;;;;;;;;;;;;;;6219346;23;20257;-89
2022/11/15 05:37:46;;;;;;;;;;;;;;;;;;6219062;23;20344;-88
2022/11/15 05:40:12;;;;;;;;;;;;;;;;;;6219373;23;20006;-88
2022/11/15 05:42:38;;;;;;;;;;;;;;;;;;6219077;23;19915;-88
2022/11/15 05:45:04;;;;;;;;;;;;;;;;;;6194150;23;19918;-88
2022/11/15 05:47:30;;;;;;;;;;;;;;;;;;6194178;23;20337;-88
2022/11/15 05:49:56;;;;;;;;;;;;;;;;;;6194046;23;19950;-89
2022/11/15 05:52:22;;;;;;;;;;;;;;;;;;6219286;23;19958;-89
2022/11/15 05:54:48;;;;;;;;;;;;;;;;;;6219341;23;19911;-89
2022/11/15 05:57:14;;;;;;;;;;;;;;;;;;6219212;23;19985;-88
2022/11/15 05:59:40;;;;;;;;;;;;;;;;;;6219039;23;20364;-89
2022/11/15 06:02:06;;;;;;;;;;;;;;;;;;6245190;22;19938;-88
2022/11/15 06:04:32;;;;;;;;;;;;;;;;;;6224329;22;19977;-88
2022/11/15 06:06:58;;;;;;;;;;;;;;;;;;6249304;22;20301;-88
2022/11/15 06:09:24;;;;;;;;;;;;;;;;;;6224075;22;19918;-88
2022/11/15 06:11:50;;;;;;;;;;;;;;;;;;6248877;22;19911;-90
2022/11/15 06:14:16;;;;;;;;;;;;;;;;;;6249478;22;20324;-90
2022/11/15 06:16:42;;;;;;;;;;;;;;;;;;6249140;22;19911;-89
2022/11/15 06:19:08;;;;;;;;;;;;;;;;;;6249451;22;20245;-89
2022/11/15 06:21:33;;;;;;;;;;;;;;;;;;6250335;22;19918;-88
2022/11/15 06:23:59;;;;;;;;;;;;;;;;;;6249619;22;19911;-89
2022/11/15 06:26:25;;;;;;;;;;;;;;;;;;6254447;22;19911;-89
2022/11/15 06:28:51;;;;;;;;;;;;;;;;;;6249315;22;20315;-89
2022/11/15 06:31:17;;;;;;;;;;;;;;;;;;6249384;22;20102;-89
2022/11/15 06:33:43;;;;;;;;;;;;;;;;;;6223911;22;19946;-89
2022/11/15 06:36:09;;;;;;;;;;;;;;;;;;6223478;22;20300;-88
2022/11/15 06:38:35;;;;;;;;;;;;;;;;;;6249412;22;19982;-88
2022/11/15 06:41:01;;;;;;;;;;;;;;;;;;6249242;22;19958;-89
2022/11/15 06:43:27;;;;;;;;;;;;;;;;;;6249231;22;19915;-89
2022/11/15 06:45:52;;;;;;;;;;;;;;;;;;6248972;22;20288;-89
2022/11/15 06:48:18;;;;;;;;;;;;;;;;;;6223625;22;20014;-89
2022/11/15 06:50:44;;;;;;;;;;;;;;;;;;6249095;22;19911;-88
2022/11/15 06:53:10;;;;;;;;;;;;;;;;;;6223690;22;19969;-89
2022/11/15 06:55:36;;;;;;;;;;;;;;;;;;6249189;22;20014;-88
2022/11/15 06:58:02;;;;;;;;;;;;;;;;;;6223905;22;19911;-87
2022/11/15 07:00:28;;;;;;;;;;;;;;;;;;6223210;22;20348;-89
2022/11/15 07:02:54;;;;;;;;;;;;;;;;;;6248938;22;19910;-87
2022/11/15 07:05:20;;;;;;;;;;;;;;;;;;6248843;22;19941;-87
2022/11/15 07:07:45;;;;;;;;;;;;;;;;;;6248593;22;20284;-88
2022/11/15 07:10:11;;;;;;;;;;;;;;;;;;6248833;22;19910;-87
2022/11/15 07:12:37;;;;;;;;;;;;;;;;;;6248941;22;19911;-88
2022/11/15 07:15:03;;;;;;;;;;;;;;;;;;6248721;22;19961;-87
2022/11/15 07:17:29;;;;;;;;;;;;;;;;;;6248831;22;19915;-88
2022/11/15 07:19:55;;;;;;;;;;;;;;;;;;6248262;22;20395;-88
2022/11/15 07:22:21;;;;;;;;;;;;;;;;;;6248074;22;19911;-87
2022/11/15 07:24:47;;;;;;;;;;;;;;;;;;6248476;22;20240;-87
2022/11/15 07:27:13;;;;;;;;;;;;;;;;;;6223129;22;19922;-87
2022/11/15 07:29:39;;;;;;;;;;;;;;;;;;6223361;22;20291;-87
2022/11/15 07:32:04;;;;;;;;;;;;;;;;;;6248781;22;19934;-87
2022/11/15 07:34:30;;;;;;;;;;;;;;;;;;6223478;22;19918;-88
2022/11/15 07:36:56;;;;;;;;;;;;;;;;;;6223343;22;19918;-92
2022/11/15 07:39:22;;;;;;;;;;;;;;;;;;6248721;22;19972;-91
2022/11/15 07:41:49;;;;;;;;;;;;;;;;;;6248710;22;19911;-89
2022/11/15 07:44:15;;;;;;;;;;;;;;;;;;6223369;22;19914;-88
2022/11/15 07:46:41;;;;;;;;;;;;;;;;;;6223265;22;19918;-89
2022/11/15 07:49:06;;;;;;;;;;;;;;;;;;6248904;22;19911;-90
2022/11/15 07:51:32;;;;;;;;;;;;;;;;;;6223334;22;19911;-90
2022/11/15 07:53:58;;;;;;;;;;;;;;;;;;6223888;22;19915;-90
2022/11/15 07:56:24;;;;;;;;;;;;;;;;;;6223417;22;19933;-89
2022/11/15 07:58:50;;;;;;;;;;;;;;;;;;6249001;22;19911;-88
2022/11/15 08:01:16;;;;;;;;;;;;;;;;;;6223788;22;20335;-93
2022/11/15 08:03:42;;;;;;;;;;;;;;;;;;6223716;22;19911;-89
2022/11/15 08:06:08;;;;;;;;;;;;;;;;;;6248883;22;20240;-89
2022/11/15 08:08:34;;;;;;;;;;;;;;;;;;6223306;22;20340;-89
2022/11/15 08:11:00;;;;;;;;;;;;;;;;;;6248871;22;19918;-90
2022/11/15 08:13:26;;;;;;;;;;;;;;;;;;6222763;22;19911;-90
2022/11/15 08:15:51;;;;;;;;;;;;;;;;;;6248791;22;20228;-90
2022/11/15 08:18:17;;;;;;;;;;;;;;;;;;6248718;22;20260;-90
2022/11/15 08:20:43;;;;;;;;;;;;;;;;;;6223591;22;19915;-91
2022/11/15 08:23:09;;;;;;;;;;;;;;;;;;6248646;22;19911;-91
2022/11/15 08:25:35;;;;;;;;;;;;;;;;;;6223612;22;19922;-91
2022/11/15 08:28:01;;;;;;;;;;;;;;;;;;6249887;22;19911;-94
2022/11/15 08:30:27;;;;;;;;;;;;;;;;;;6225643;22;19918;-94
2022/11/15 08:32:53;;;;;;;;;;;;;;;;;;6224354;22;19911;-90
2022/11/15 08:35:19;;;;;;;;;;;;;;;;;;6250529;22;19915;-89
2022/11/15 08:37:45;;;;;;;;;;;;;;;;;;6250751;22;20321;-91
2022/11/15 08:40:11;;;;;;;;;;;;;;;;;;6225444;22;19919;-92
2022/11/15 08:42:36;;;;;;;;;;;;;;;;;;6252459;22;19984;-91
2022/11/15 08:45:02;;;;;;;;;;;;;;;;;;6225680;22;19910;-91
2022/11/15 08:47:28;;;;;;;;;;;;;;;;;;6250537;22;20333;-89
2022/11/15 08:49:54;;;;;;;;;;;;;;;;;;6250628;22;19911;-90
2022/11/15 08:52:20;;;;;;;;;;;;;;;;;;6225181;22;19969;-90
2022/11/15 08:54:46;;;;;;;;;;;;;;;;;;6225940;22;19915;-90
2022/11/15 08:57:12;;;;;;;;;;;;;;;;;;6250668;22;19915;-90
2022/11/15 08:59:38;;;;;;;;;;;;;;;;;;6250464;22;19915;-89
2022/11/15 09:02:04;;;;;;;;;;;;;;;;;;6251615;22;19915;-89
2022/11/15 09:04:30;;;;;;;;;;;;;;;;;;6252136;22;19911;-87
2022/11/15 09:06:56;;;;;;;;;;;;;;;;;;6252254;22;19911;-88
2022/11/15 09:09:21;;;;;;;;;;;;;;;;;;6254543;22;20333;-87
2022/11/15 09:11:48;;;;;;;;;;;;;;;;;;6254024;22;19911;-90
2022/11/15 09:14:14;;;;;;;;;;;;;;;;;;6258223;22;19918;-89
2022/11/15 09:16:40;;;;;;;;;;;;;;;;;;6239135;22;19915;-93
2022/11/15 09:19:06;;;;;;;;;;;;;;;;;;6242427;22;19918;-92
2022/11/15 09:21:32;;;;;;;;;;;;;;;;;;6241678;22;20331;-90
2022/11/15 09:23:58;;;;;;;;;;;;;;;;;;6264355;22;19911;-90
2022/11/15 09:26:24;;;;;;;;;;;;;;;;;;6264149;22;19911;-92
2022/11/15 09:28:50;;;;;;;;;;;;;;;;;;6232123;22;19954;-89
2022/11/15 09:31:16;;;;;;;;;;;;;;;;;;6256246;22;19911;-90
2022/11/15 09:33:41;;;;;;;;;;;;;;;;;;6260143;22;19911;-89
2022/11/15 09:36:07;;;;;;;;;;;;;;;;;;6238960;22;19922;-90
2022/11/15 09:38:33;;;;;;;;;;;;;;;;;;6237382;22;19931;-90
2022/11/15 09:40:59;;;;;;;;;;;;;;;;;;6235777;22;20388;-91
2022/11/15 09:43:25;;;;;;;;;;;;;;;;;;6233412;22;19986;-90
2022/11/15 09:45:51;;;;;;;;;;;;;;;;;;6259810;22;19934;-90
2022/11/15 09:48:17;;;;;;;;;;;;;;;;;;6237353;22;19911;-90
2022/11/15 09:50:46;;;;;;;;;;;;;;;;;;6236579;22;20395;-90
2022/11/15 09:53:12;;;;;;;;;;;;;;;;;;6236773;22;19911;-90
2022/11/15 09:55:38;;;;;;;;;;;;;;;;;;6236885;22;19969;-90
2022/11/15 09:58:04;;;;;;;;;;;;;;;;;;6260963;22;19934;-90
2022/11/15 10:00:30;;;;;;;;;;;;;;;;;;6260817;22;20244;-90
2022/11/15 10:02:56;;;;;;;;;;;;;;;;;;6260598;22;19918;-89
2022/11/15 10:05:22;;;;;;;;;;;;;;;;;;6260522;22;19911;-89
2022/11/15 10:07:48;;;;;;;;;;;;;;;;;;6233950;22;20343;-90
2022/11/15 10:10:13;;;;;;;;;;;;;;;;;;6260153;22;19962;-90
2022/11/15 10:12:39;;;;;;;;;;;;;;;;;;6234265;22;20222;-90
2022/11/15 10:15:05;;;;;;;;;;;;;;;;;;6224759;22;20323;-90
2022/11/15 10:17:31;;;;;;;;;;;;;;;;;;6224295;22;19911;-90
2022/11/15 10:19:57;;;;;;;;;;;;;;;;;;6224493;22;19915;-90
2022/11/15 10:22:23;;;;;;;;;;;;;;;;;;6224743;22;19986;-90
2022/11/15 10:24:49;;;;;;;;;;;;;;;;;;6249497;22;19915;-90
2022/11/15 10:27:15;;;;;;;;;;;;;;;;;;6249822;22;19911;-89
2022/11/15 10:29:41;;;;;;;;;;;;;;;;;;6249648;22;20285;-90
2022/11/15 10:32:07;;;;;;;;;;;;;;;;;;6224283;22;19919;-90
2022/11/15 10:34:32;;;;;;;;;;;;;;;;;;6224072;22;19911;-90
2022/11/15 10:36:58;;;;;;;;;;;;;;;;;;6223933;22;20299;-90
2022/11/15 10:39:24;;;;;;;;;;;;;;;;;;6249659;22;19954;-90
2022/11/15 10:41:50;;;;;;;;;;;;;;;;;;6224048;22;19922;-90
2022/11/15 10:44:16;;;;;;;;;;;;;;;;;;6223990;22;19911;-90
2022/11/15 10:46:42;;;;;;;;;;;;;;;;;;6224377;22;19918;-90
2022/11/15 10:49:08;;;;;;;;;;;;;;;;;;6249398;22;19911;-89
2022/11/15 10:51:34;;;;;;;;;;;;;;;;;;6223881;22;20181;-88
2022/11/15 10:54:00;;;;;;;;;;;;;;;;;;6249489;22;19943;-87
2022/11/15 10:56:26;;;;;;;;;;;;;;;;;;6248820;22;19946;-87
2022/11/15 10:58:51;;;;;;;;;;;;;;;;;;6248960;22;19946;-88
2022/11/15 11:01:17;;;;;;;;;;;;;;;;;;6223281;22;19915;-88
2022/11/15 11:03:43;;;;;;;;;;;;;;;;;;6223876;22;19958;-87
2022/11/15 11:06:09;;;;;;;;;;;;;;;;;;6249359;22;19993;-88
2022/11/15 11:08:36;;;;;;;;;;;;;;;;;;6249208;22;19918;-87
2022/11/15 11:11:02;;;;;;;;;;;;;;;;;;6223775;22;19911;-87
2022/11/15 11:13:27;;;;;;;;;;;;;;;;;;6223849;22;19973;-87
2022/11/15 11:15:53;;;;;;;;;;;;;;;;;;6249079;22;19986;-88
2022/11/15 11:18:19;;;;;;;;;;;;;;;;;;6248762;22;19946;-88
2022/11/15 11:20:45;;;;;;;;;;;;;;;;;;6249020;22;19955;-88
2022/11/15 11:23:11;;;;;;;;;;;;;;;;;;6248930;22;19911;-89
2022/11/15 11:25:37;;;;;;;;;;;;;;;;;;6223411;22;19986;-87
2022/11/15 11:28:03;;;;;;;;;;;;;;;;;;6248552;22;19917;-88
2022/11/15 11:30:29;;;;;;;;;;;;;;;;;;6223435;22;20333;-87
2022/11/15 11:32:55;;;;;;;;;;;;;;;;;;6248815;22;19911;-87
2022/11/15 11:35:20;;;;;;;;;;;;;;;;;;6248663;22;19911;-87
2022/11/15 11:37:46;;;;;;;;;;;;;;;;;;6223576;22;20253;-89
2022/11/15 11:40:12;;;;;;;;;;;;;;;;;;6223522;22;19973;-87
2022/11/15 11:42:38;;;;;;;;;;;;;;;;;;6224060;22;19930;-88
2022/11/15 11:45:04;;;;;;;;;;;;;;;;;;6248873;22;19933;-87
2022/11/15 11:47:30;;;;;;;;;;;;;;;;;;6223512;22;19994;-88
2022/11/15 11:49:56;;;;;;;;;;;;;;;;;;6223420;22;19985;-88
2022/11/15 11:52:22;;;;;;;;;;;;;;;;;;6223506;22;19942;-88
2022/11/15 11:54:48;;;;;;;;;;;;;;;;;;6248810;22;19933;-88
2022/11/15 11:57:14;;;;;;;;;;;;;;;;;;6223732;22;19911;-87
2022/11/15 11:59:40;;;;;;;;;;;;;;;;;;6248669;22;19915;-87
2022/11/15 12:02:07;;;;;;;;;;;;;;;;;;6248994;22;19965;-88
2022/11/15 12:04:33;;;;;;;;;;;;;;;;;;6248774;22;19911;-88
2022/11/15 12:06:59;;;;;;;;;;;;;;;;;;6248986;22;20324;-87
2022/11/15 12:09:25;;;;;;;;;;;;;;;;;;6224515;22;19918;-87
2022/11/15 12:11:51;;;;;;;;;;;;;;;;;;6251032;22;19918;-87
2022/11/15 12:14:17;;;;;;;;;;;;;;;;;;6225071;22;20248;-87
2022/11/15 12:16:43;;;;;;;;;;;;;;;;;;6250433;22;19957;-87
2022/11/15 12:19:09;;;;;;;;;;;;;;;;;;6250485;22;19915;-88
2022/11/15 12:21:35;;;;;;;;;;;;;;;;;;6225522;22;20031;-88
2022/11/15 12:24:01;;;;;;;;;;;;;;;;;;6250467;22;20283;-88
2022/11/15 12:26:26;;;;;;;;;;;;;;;;;;6225124;22;19942;-87
2022/11/15 12:28:52;;;;;;;;;;;;;;;;;;6224925;22;19917;-88
2022/11/15 12:31:18;;;;;;;;;;;;;;;;;;6250742;22;19923;-88
2022/11/15 12:33:44;;;;;;;;;;;;;;;;;;6225974;22;20383;-87
2022/11/15 12:36:10;;;;;;;;;;;;;;;;;;6250483;22;19914;-88
2022/11/15 12:38:36;;;;;;;;;;;;;;;;;;6250613;22;19986;-88
2022/11/15 12:41:02;;;;;;;;;;;;;;;;;;6225064;22;20236;-87
2022/11/15 12:43:28;;;;;;;;;;;;;;;;;;6250015;22;19947;-88
2022/11/15 12:45:54;;;;;;;;;;;;;;;;;;6225305;22;19953;-88
2022/11/15 12:48:20;;;;;;;;;;;;;;;;;;6250172;22;19911;-88
2022/11/15 12:50:46;;;;;;;;;;;;;;;;;;6250552;22;19911;-88
2022/11/15 12:53:11;;;;;;;;;;;;;;;;;;6224909;22;20343;-87
2022/11/15 12:55:38;;;;;;;;;;;;;;;;;;6250348;22;19911;-89
2022/11/15 12:58:03;;;;;;;;;;;;;;;;;;6249971;22;19911;-88
2022/11/15 13:00:29;;;;;;;;;;;;;;;;;;6224699;22;20043;-87
2022/11/15 13:02:55;;;;;;;;;;;;;;;;;;6224977;22;20332;-87
2022/11/15 13:05:22;;;;;;;;;;;;;;;;;;6250258;22;19922;-89
2022/11/15 13:07:48;;;;;;;;;;;;;;;;;;6250432;22;20305;-88
2022/11/15 13:10:14;;;;;;;;;;;;;;;;;;6224723;22;19918;-88
2022/11/15 13:12:40;;;;;;;;;;;;;;;;;;6250016;22;19911;-88
2022/11/15 13:15:06;;;;;;;;;;;;;;;;;;6224822;22;20126;-89
2022/11/15 13:17:33;;;;;;;;;;;;;;;;;;6250016;22;20079;-87
2022/11/15 13:20:00;;;;;;;;;;;;;;;;;;6223526;22;19919;-89
2022/11/15 13:25:10;;;;;;;;;;;;;;;;;;6249936;22;19947;-85
2022/11/15 13:27:36;;;;;;;;;;;;;;;;;;6224292;22;19919;-87
2022/11/15 13:30:03;;;;;;;;;;;;;;;;;;6249698;22;20377;-83
2022/11/15 13:32:28;;;;;;;;;;;;;;;;;;6249573;22;19930;-83
2022/11/15 13:34:54;;;;;;;;;;;;;;;;;;6249478;22;19926;-84
2022/11/15 13:37:20;;;;;;;;;;;;;;;;;;6249761;22;19917;-84
2022/11/15 13:39:46;;;;;;;;;;;;;;;;;;6249369;22;20316;-87
2022/11/15 13:42:13;;;;;;;;;;;;;;;;;;6249645;22;19965;-87
2022/11/15 13:44:39;;;;;;;;;;;;;;;;;;6249740;22;19942;-87
2022/11/15 13:47:05;;;;;;;;;;;;;;;;;;6224138;22;19911;-89
2022/11/15 13:49:32;;;;;;;;;;;;;;;;;;6224440;22;19915;-86
2022/11/15 13:51:57;;;;;;;;;;;;;;;;;;6249927;22;19927;-89
2022/11/15 13:54:23;;;;;;;;;;;;;;;;;;6249944;22;19931;-87
2022/11/15 13:56:49;;;;;;;;;;;;;;;;;;6224623;22;19986;-90
2022/11/15 13:59:15;;;;;;;;;;;;;;;;;;6249555;22;20074;-88
2022/11/15 14:01:41;;;;;;;;;;;;;;;;;;6249176;22;19915;-88
2022/11/15 14:04:08;;;;;;;;;;;;;;;;;;6223746;22;19918;-87
2022/11/15 14:06:34;;;;;;;;;;;;;;;;;;6249006;22;19947;-88
2022/11/15 14:09:00;;;;;;;;;;;;;;;;;;6249127;22;19911;-86
2022/11/15 14:11:25;;;;;;;;;;;;;;;;;;6249176;22;20253;-86
2022/11/15 14:13:51;;;;;;;;;;;;;;;;;;6223530;22;19948;-87
2022/11/15 14:16:17;;;;;;;;;;;;;;;;;;6247048;22;19911;-89
2022/11/15 14:18:43;;;;;;;;;;;;;;;;;;6248920;22;20395;-88
2022/11/15 14:21:09;;;;;;;;;;;;;;;;;;6222842;22;19965;-86
2022/11/15 14:23:35;;;;;;;;;;;;;;;;;;6248645;22;19911;-87
2022/11/15 14:26:01;;;;;;;;;;;;;;;;;;6249051;22;20283;-86
2022/11/15 14:28:27;;;;;;;;;;;;;;;;;;6223483;22;20334;-86
2022/11/15 14:30:53;;;;;;;;;;;;;;;;;;6248739;22;19919;-86
2022/11/15 14:33:19;;;;;;;;;;;;;;;;;;6223436;22;20329;-87
2022/11/15 14:35:45;;;;;;;;;;;;;;;;;;6248769;22;19911;-86
2022/11/15 14:38:10;;;;;;;;;;;;;;;;;;6248526;22;19911;-86
2022/11/15 14:40:36;;;;;;;;;;;;;;;;;;6248488;22;19914;-86
2022/11/15 14:43:02;;;;;;;;;;;;;;;;;;6248943;22;19917;-88
2022/11/15 14:45:28;;;;;;;;;;;;;;;;;;6224011;22;20360;-88
2022/11/15 14:47:54;;;;;;;;;;;;;;;;;;6248905;22;19911;-87
2022/11/15 14:50:20;;;;;;;;;;;;;;;;;;6223242;22;19919;-87
2022/11/15 14:52:46;;;;;;;;;;;;;;;;;;6248835;22;20436;-89
2022/11/15 14:55:12;;;;;;;;;;;;;;;;;;6223881;22;19911;-87
2022/11/15 14:57:38;;;;;;;;;;;;;;;;;;6248316;22;20244;-88
2022/11/15 15:00:04;;;;;;;;;;;;;;;;;;6223104;22;19916;-90
2022/11/15 15:02:30;;;;;;;;;;;;;;;;;;6248493;22;20273;-88
2022/11/15 15:04:57;;;;;;;;;;;;;;;;;;6248622;22;19919;-87
2022/11/15 15:07:23;;;;;;;;;;;;;;;;;;6223225;22;20113;-87
2022/11/15 15:09:49;;;;;;;;;;;;;;;;;;6222953;22;20122;-87
2022/11/15 15:12:15;;;;;;;;;;;;;;;;;;6248114;22;20024;-90
2022/11/15 15:14:41;;;;;;;;;;;;;;;;;;6224134;22;19986;-89
2022/11/15 15:17:07;;;;;;;;;;;;;;;;;;6248816;22;19911;-90
2022/11/15 15:19:33;;;;;;;;;;;;;;;;;;6223032;22;19911;-87
2022/11/15 15:21:59;;;;;;;;;;;;;;;;;;6248265;22;20412;-87
2022/11/15 15:24:25;;;;;;;;;;;;;;;;;;6248430;22;19911;-87
2022/11/15 15:26:51;;;;;;;;;;;;;;;;;;6223086;22;19922;-88
2022/11/15 15:29:17;;;;;;;;;;;;;;;;;;6248493;22;19911;-91
2022/11/15 15:31:43;;;;;;;;;;;;;;;;;;6224327;22;19989;-90
2022/11/15 15:34:09;;;;;;;;;;;;;;;;;;6248971;22;20029;-91
2022/11/15 15:36:35;;;;;;;;;;;;;;;;;;6224175;22;20049;-91
2022/11/15 15:39:00;;;;;;;;;;;;;;;;;;6248564;22;20029;-88
2022/11/15 15:41:26;;;;;;;;;;;;;;;;;;6223586;22;19958;-90
2022/11/15 15:43:52;;;;;;;;;;;;;;;;;;6224420;22;19918;-88
2022/11/15 15:46:18;;;;;;;;;;;;;;;;;;6226179;22;20368;-92
2022/11/15 15:48:44;;;;;;;;;;;;;;;;;;6226397;22;19930;-91
2022/11/15 15:51:11;;;;;;;;;;;;;;;;;;6226516;22;19990;-90
2022/11/15 15:53:37;;;;;;;;;;;;;;;;;;6228027;22;19911;-91
2022/11/15 15:56:03;;;;;;;;;;;;;;;;;;6225790;22;19911;-89
2022/11/15 15:58:29;;;;;;;;;;;;;;;;;;6226670;22;19915;-91
2022/11/15 16:00:54;;;;;;;;;;;;;;;;;;6220825;22;19931;-92
2022/11/15 16:03:20;;;;;;;;;;;;;;;;;;6226397;22;19911;-91
2022/11/15 16:05:46;;;;;;;;;;;;;;;;;;6225529;22;19913;-90
2022/11/15 16:08:12;;;;;;;;;;;;;;;;;;6252148;22;20413;-88
2022/11/15 16:10:38;;;;;;;;;;;;;;;;;;6224926;22;20218;-87
2022/11/15 16:13:04;;;;;;;;;;;;;;;;;;6224979;22;19911;-87
2022/11/15 16:15:30;;;;;;;;;;;;;;;;;;6250253;22;19911;-88
2022/11/15 16:17:56;;;;;;;;;;;;;;;;;;6224799;22;19946;-88
2022/11/15 16:20:22;;;;;;;;;;;;;;;;;;6249985;22;19990;-88
2022/11/15 16:22:48;;;;;;;;;;;;;;;;;;6250365;22;19918;-87
2022/11/15 16:25:14;;;;;;;;;;;;;;;;;;6250695;22;19915;-90
2022/11/15 16:27:44;;;;;;;;;;;;;;;;;;6228818;22;19911;-90
2022/11/15 16:30:10;;;;;;;;;;;;;;;;;;6224881;22;19918;-90
2022/11/15 16:32:36;;;;;;;;;;;;;;;;;;6225256;22;20322;-90
2022/11/15 16:35:02;;;;;;;;;;;;;;;;;;6225711;22;19947;-89
2022/11/15 16:37:28;;;;;;;;;;;;;;;;;;6225198;22;19912;-90
2022/11/15 16:39:54;;;;;;;;;;;;;;;;;;6250712;22;19915;-89
2022/11/15 16:42:20;;;;;;;;;;;;;;;;;;6225627;22;20324;-91
2022/11/15 16:44:46;;;;;;;;;;;;;;;;;;6247546;22;19982;-86
2022/11/15 16:47:11;;;;;;;;;;;;;;;;;;6249434;22;19939;-86
2022/11/15 16:49:37;;;;;;;;;;;;;;;;;;6249629;22;19915;-87
2022/11/15 16:52:03;;;;;;;;;;;;;;;;;;6249560;22;19911;-86